Airfield :
LOGIN :

Register | Disclaimer

   EN    FR    IT 

 










Legend :    VFR   Marginal VFR   IFR   Intensive IFR   Very Intensive IFR
Visi :
Ceiling :
>= 8 km
>= 3000ft
5 to 8 km
1000 to 3000 ft
1500m to 5 km
500 to 1000 ft
800 to 1500m
200 to 500 ft
< 800m
< 200 ft
Symbols :   Thunderstorms  Fog  Heavy snow  Heavy precipitations  Wind > 20 kt
SIGMETs :     Misc.  Thunderstorms  Icing  Turbulence  Mountain Waves  Volcanic Ashes






- Airport Elevation : 3 ft
- IATA code : LWR


EHLW - Leuuwarden Air Base

CURRENT METAR :
  • 192325Z AUTO 29005KT 9999 SCT130 OVC200 04/03 Q1045 BLU

EXPIRED METARs :
  • 192255Z AUTO 29005KT 9999 OVC140 04/03 Q1045 BLU
  • 192225Z AUTO 30005KT 9999 SCT150 OVC230 03/03 Q1045 BLU
  • 192155Z AUTO 29005KT 9000 BR OVC240 04/03 Q1045 BLU
  • 192125Z AUTO 28003KT 9000 BR NCD 04/03 Q1045 BLU
  • 192055Z AUTO 31004KT 9999 FEW014 04/04 Q1045 BLU

TAF TAF EHLW
Valid from the 19 at 22:00 until the 20 at 10:00 UTC


192135Z 1922/2010 26005KT 9999 FEW014
BECMG 1922/1924 4500 BR
PROB40
TEMPO 2001/2007 1500
BECMG 2008/2010 9999 NSW



MET'MAP, your aeronautical weather chart ! - Copyright ORBIFLY December 2007 - Disclaimer

ORBIFLY MET'MAP TEAM :

Programming & Development : Alexandra Zaïnal
Concept & original design : Baudouin d'Aumeries
Assistance for programming : Marc-Olivier Méhu
Technical & hardware support : Manuel Goepfert

Contact : metmap@orbifly.com




SOURCES & CREDITS :

   NOAA